Time;durP1;ratioP1;P1;durP2;ratioP2;P2;SDS_P1;SDS_P2;PMS_P1;PMS_P2;Temp;Humidity;BMP_temperature;BMP_pressure;BME280_temperature;BME280_humidity;BME280_pressure;Samples;Min_cycle;Max_cycle;Signal;HPM_P1;HPM_P2
2023/06/22 00:01:01;;;;;;;;;;;;;;;15.54;47.86;100979.28;5058613;28;1145;-56
2023/06/22 00:03:27;;;;;;;;;;;;;;;15.67;47.33;100967.88;5058269;28;1119;-56
2023/06/22 00:05:53;;;;;;;;;;;;;;;15.59;47.33;100979.31;5057426;28;1988;-56
2023/06/22 00:08:18;;;;;;;;;;;;;;;15.55;47.34;100979.00;5058581;28;1067;-57
2023/06/22 00:10:44;;;;;;;;;;;;;;;15.54;47.43;100980.13;5052585;28;1063;-57
2023/06/22 00:13:09;;;;;;;;;;;;;;;16.08;48.16;100990.13;5038361;28;1069;-56
2023/06/22 00:15:35;;;;;;;;;;;;;;;16.26;49.51;100974.31;5043787;28;1167;-56
2023/06/22 00:18:02;;;;;;;;;;;;;;;15.90;49.46;100974.91;5058302;28;1132;-56
2023/06/22 00:20:28;;;;;;;;;;;;;;;15.87;48.55;100977.38;5058480;28;1226;-58
2023/06/22 00:22:56;;;;;;;;;;;;;;;15.77;48.38;100977.25;5045405;28;874;-58
2023/06/22 00:25:22;;;;;;;;;;;;;;;15.69;48.06;100982.13;5038021;28;2009;-58
2023/06/22 00:27:48;;;;;;;;;;;;;;;15.72;47.62;100976.16;5051161;28;1024;-58
2023/06/22 00:30:14;;;;;;;;;;;;;;;15.66;47.50;100976.38;5039886;28;1053;-57
2023/06/22 00:32:39;;;;;;;;;;;;;;;15.57;47.43;100989.72;5058358;28;1191;-57
2023/06/22 00:35:06;;;;;;;;;;;;;;;15.61;47.12;100985.34;5057270;28;1059;-58
2023/06/22 00:37:31;;;;;;;;;;;;;;;15.62;47.10;100981.53;5045027;28;1132;-58
2023/06/22 00:39:58;;;;;;;;;;;;;;;15.62;47.05;100986.19;5026988;28;1148;-57
2023/06/22 00:42:24;;;;;;;;;;;;;;;15.56;47.36;100990.81;5057788;28;1131;-57
2023/06/22 00:44:49;;;;;;;;;;;;;;;15.54;47.40;100984.75;5039558;28;1245;-57
2023/06/22 00:47:17;;;;;;;;;;;;;;;15.51;47.27;100990.75;5027331;28;1905;-57
2023/06/22 00:49:42;;;;;;;;;;;;;;;15.56;47.12;100983.41;5043553;28;1282;-57
2023/06/22 00:52:09;;;;;;;;;;;;;;;15.49;47.12;100982.81;5057649;28;1110;-57
2023/06/22 00:54:37;;;;;;;;;;;;;;;15.77;47.87;100986.31;5039767;28;1252;-57
2023/06/22 00:57:03;;;;;;;;;;;;;;;16.19;49.42;100992.94;5057515;28;1119;-57
2023/06/22 00:59:28;;;;;;;;;;;;;;;15.91;49.10;100986.72;5053694;28;992;-57
2023/06/22 01:01:54;;;;;;;;;;;;;;;15.71;48.89;100985.47;5057511;28;1214;-57
2023/06/22 01:04:19;;;;;;;;;;;;;;;15.72;48.31;100987.13;5039126;28;1423;-57
2023/06/22 01:06:55;;;;;;;;;;;;;;;15.74;47.86;100995.06;5039424;28;1905;-57
2023/06/22 01:09:31;;;;;;;;;;;;;;;15.63;47.80;100988.69;5039605;28;1252;-57
2023/06/22 01:11:57;;;;;;;;;;;;;;;15.56;47.74;100988.06;5025764;28;1106;-57
2023/06/22 01:14:24;;;;;;;;;;;;;;;15.55;47.66;100987.22;5039093;28;1083;-57
2023/06/22 01:16:50;;;;;;;;;;;;;;;15.50;47.84;100983.63;5039037;28;1103;-57
2023/06/22 01:19:21;;;;;;;;;;;;;;;15.55;47.30;100980.94;5039230;28;1053;-57
2023/06/22 01:21:47;;;;;;;;;;;;;;;15.57;47.14;100979.59;5055282;28;1063;-56
2023/06/22 01:24:30;;;;;;;;;;;;;;;15.58;47.06;100980.41;5039392;28;1024;-57
2023/06/22 01:27:25;;;;;;;;;;;;;;;15.50;47.24;100973.50;5038649;28;1914;-56
2023/06/22 01:29:51;;;;;;;;;;;;;;;15.50;47.12;100968.03;5047564;28;1527;-56
2023/06/22 01:32:17;;;;;;;;;;;;;;;16.29;48.45;100968.28;5039111;28;1104;-57
2023/06/22 01:34:42;;;;;;;;;;;;;;;15.88;48.79;100971.63;5038969;28;1314;-57
2023/06/22 01:37:08;;;;;;;;;;;;;;;15.78;48.55;100976.16;5056717;28;1118;-57
2023/06/22 01:39:33;;;;;;;;;;;;;;;15.66;48.21;100976.38;5056487;28;1020;-57
2023/06/22 01:41:59;;;;;;;;;;;;;;;15.65;47.78;100981.00;5038826;28;1092;-57
2023/06/22 01:44:25;;;;;;;;;;;;;;;15.62;47.88;100970.56;5056767;28;1172;-56
2023/06/22 01:46:50;;;;;;;;;;;;;;;15.54;47.70;100979.28;5038561;28;1980;-56
2023/06/22 01:49:16;;;;;;;;;;;;;;;15.56;47.37;100977.13;5025353;28;1230;-57
2023/06/22 01:51:41;;;;;;;;;;;;;;;15.50;47.39;100969.91;5048217;28;917;-57
2023/06/22 01:54:08;;;;;;;;;;;;;;;15.48;47.28;100975.66;5017566;28;1117;-57
2023/06/22 01:56:33;;;;;;;;;;;;;;;15.53;47.37;100977.66;5038200;28;1264;-57
2023/06/22 01:59:05;;;;;;;;;;;;;;;15.46;47.20;100977.00;5036390;28;1204;-56
2023/06/22 02:01:31;;;;;;;;;;;;;;;16.28;48.27;100988.56;5019060;28;1228;-56
2023/06/22 02:04:03;;;;;;;;;;;;;;;16.12;49.67;100989.56;5052533;28;1029;-57
2023/06/22 02:06:35;;;;;;;;;;;;;;;15.81;49.49;100990.22;5028665;28;1914;-57
2023/06/22 02:09:01;;;;;;;;;;;;;;;15.76;48.92;100994.81;5037026;28;1025;-57
2023/06/22 02:11:27;;;;;;;;;;;;;;;15.68;48.47;101002.44;5037982;28;1974;-57
2023/06/22 02:13:52;;;;;;;;;;;;;;;15.66;47.95;101001.03;5038696;28;1223;-56
2023/06/22 02:16:18;;;;;;;;;;;;;;;15.70;47.52;101000.25;5038596;28;1204;-57
2023/06/22 02:18:47;;;;;;;;;;;;;;;15.53;47.88;101000.38;5055800;28;1091;-57
2023/06/22 02:21:12;;;;;;;;;;;;;;;15.55;47.80;100995.44;5038650;28;1435;-57
2023/06/22 02:23:38;;;;;;;;;;;;;;;15.58;47.47;100985.88;5051002;28;1036;-57
2023/06/22 02:26:03;;;;;;;;;;;;;;;16.25;49.08;100991.88;5047543;28;1910;-57
2023/06/22 02:28:30;;;;;;;;;;;;;;;15.84;49.28;100999.84;5056948;28;1037;-57
2023/06/22 02:30:56;;;;;;;;;;;;;;;15.75;48.63;100993.97;5060554;28;1411;-57
2023/06/22 02:33:21;;;;;;;;;;;;;;;15.72;48.18;100995.34;5042005;28;2067;-57
2023/06/22 02:35:48;;;;;;;;;;;;;;;15.67;47.95;100995.28;5048784;28;880;-57
2023/06/22 02:38:14;;;;;;;;;;;;;;;16.69;48.89;100999.75;5057621;28;1024;-57
2023/06/22 02:40:39;;;;;;;;;;;;;;;16.25;49.91;100998.16;5042182;28;1036;-57
2023/06/22 02:43:05;;;;;;;;;;;;;;;15.99;49.81;101007.34;5055858;28;1135;-57
2023/06/22 02:45:30;;;;;;;;;;;;;;;15.90;48.79;101017.97;5040458;28;1882;-56
2023/06/22 02:47:56;;;;;;;;;;;;;;;15.80;48.70;101015.16;5034594;28;1267;-56
2023/06/22 02:50:22;;;;;;;;;;;;;;;15.77;48.08;101021.97;5039821;28;1171;-57
2023/06/22 02:52:48;;;;;;;;;;;;;;;15.69;47.92;101012.28;5039591;28;1287;-57
2023/06/22 02:55:14;;;;;;;;;;;;;;;15.68;48.13;101021.63;5041658;28;1254;-57
2023/06/22 02:57:43;;;;;;;;;;;;;;;15.73;47.72;101020.84;5041715;28;1417;-56
2023/06/22 03:00:16;;;;;;;;;;;;;;;15.66;47.48;101021.03;5030069;28;1118;-57
2023/06/22 03:02:46;;;;;;;;;;;;;;;15.63;47.40;101028.97;5040637;28;1238;-56
2023/06/22 03:05:13;;;;;;;;;;;;;;;15.67;47.54;101030.94;5041978;28;1906;-56
2023/06/22 03:07:42;;;;;;;;;;;;;;;15.60;47.56;101021.25;5041783;28;1222;-56
2023/06/22 03:10:09;;;;;;;;;;;;;;;15.60;47.61;101033.06;5041196;28;1157;-57
2023/06/22 03:12:35;;;;;;;;;;;;;;;15.59;47.35;101020.44;5038504;28;1329;-56
2023/06/22 03:15:01;;;;;;;;;;;;;;;15.65;47.27;101035.00;5059515;28;1124;-57
2023/06/22 03:17:26;;;;;;;;;;;;;;;15.51;47.39;101018.16;5059421;28;1120;-58
2023/06/22 03:19:52;;;;;;;;;;;;;;;15.57;47.23;101020.69;5059072;28;1144;-50
2023/06/22 03:22:17;;;;;;;;;;;;;;;15.50;47.41;101022.00;5041540;28;1191;-52
2023/06/22 03:24:43;;;;;;;;;;;;;;;15.53;47.21;101032.47;5045870;28;866;-52
2023/06/22 03:27:08;;;;;;;;;;;;;;;15.56;47.19;101034.66;5059146;28;1995;-49
2023/06/22 03:29:34;;;;;;;;;;;;;;;15.51;47.16;101034.63;5041127;28;1240;-51
2023/06/22 03:31:59;;;;;;;;;;;;;;;15.51;47.06;101034.63;5040734;28;1052;-48
2023/06/22 03:34:25;;;;;;;;;;;;;;;15.47;47.42;101030.75;5041001;28;1393;-52
2023/06/22 03:36:52;;;;;;;;;;;;;;;15.48;47.45;101044.19;5040151;28;1339;-55
2023/06/22 03:39:18;;;;;;;;;;;;;;;15.44;47.34;101055.94;5058884;28;1235;-57
2023/06/22 03:41:43;;;;;;;;;;;;;;;15.45;47.27;101041.16;5058274;28;1032;-55
2023/06/22 03:44:12;;;;;;;;;;;;;;;15.48;47.21;101044.19;5040924;28;1890;-54
2023/06/22 03:46:37;;;;;;;;;;;;;;;15.48;47.19;101040.63;5041117;28;1906;-54
2023/06/22 03:49:03;;;;;;;;;;;;;;;15.42;47.53;101042.50;5039059;28;1156;-55
2023/06/22 03:51:29;;;;;;;;;;;;;;;15.40;47.25;101050.97;5058872;28;1083;-56
2023/06/22 03:53:54;;;;;;;;;;;;;;;16.38;48.72;101051.78;5058665;28;1203;-57
2023/06/22 03:56:20;;;;;;;;;;;;;;;15.86;49.23;101050.56;5058863;28;1082;-56
2023/06/22 03:58:46;;;;;;;;;;;;;;;15.77;49.00;101045.78;5058486;28;1127;-55
2023/06/22 04:01:11;;;;;;;;;;;;;;;15.68;49.19;101039.97;5051610;28;994;-58
2023/06/22 04:03:37;;;;;;;;;;;;;;;15.97;50.97;101048.75;5050992;28;1012;-56
2023/06/22 04:06:03;;;;;;;;;;;;;;;15.84;51.11;101054.69;5045816;28;1973;-54
2023/06/22 04:08:28;;;;;;;;;;;;;;;15.75;50.02;101051.53;5058614;28;1119;-54
2023/06/22 04:10:54;;;;;;;;;;;;;;;15.84;49.46;101057.44;5058484;28;1032;-54
2023/06/22 04:13:19;;;;;;;;;;;;;;;15.71;49.11;101054.00;5044409;28;872;-55
2023/06/22 04:15:45;;;;;;;;;;;;;;;15.77;48.63;101056.75;5058373;28;1271;-54
2023/06/22 04:18:10;;;;;;;;;;;;;;;15.70;48.52;101059.75;5057942;28;1071;-54
2023/06/22 04:20:36;;;;;;;;;;;;;;;15.65;48.31;101065.16;5058192;28;1082;-55
2023/06/22 04:23:01;;;;;;;;;;;;;;;15.68;48.26;101064.66;5058339;28;1155;-56
2023/06/22 04:25:27;;;;;;;;;;;;;;;15.58;48.56;101059.91;5043477;28;1973;-53
2023/06/22 04:27:52;;;;;;;;;;;;;;;15.65;48.49;101060.50;5046171;28;1060;-53
2023/06/22 04:30:18;;;;;;;;;;;;;;;15.68;48.03;101060.00;5057625;28;1118;-50
2023/06/22 04:32:44;;;;;;;;;;;;;;;15.57;48.05;101060.97;5050315;28;1048;-53
2023/06/22 04:35:09;;;;;;;;;;;;;;;15.58;48.27;101062.63;5052163;28;1084;-53
2023/06/22 04:37:35;;;;;;;;;;;;;;;15.60;48.25;101063.22;5057123;28;862;-55
2023/06/22 04:40:00;;;;;;;;;;;;;;;15.66;48.00;101064.91;5050915;28;1199;-54
2023/06/22 04:42:26;;;;;;;;;;;;;;;15.65;47.92;101070.66;5052017;28;1231;-53
2023/06/22 04:44:52;;;;;;;;;;;;;;;15.65;47.91;101065.97;5057442;28;1140;-54
2023/06/22 04:47:17;;;;;;;;;;;;;;;15.66;47.97;101073.13;5057805;28;1992;-51
2023/06/22 04:49:43;;;;;;;;;;;;;;;15.62;48.13;101069.25;5044778;28;1153;-53
2023/06/22 04:52:09;;;;;;;;;;;;;;;15.64;48.13;101069.84;5038964;28;1076;-54
2023/06/22 04:54:35;;;;;;;;;;;;;;;16.71;47.10;101079.94;5057591;28;1044;-55
2023/06/22 04:57:01;;;;;;;;;;;;;;;16.85;47.14;101080.28;5057566;28;1048;-53
2023/06/22 04:59:30;;;;;;;;;;;;;;;16.51;48.21;101068.84;5057446;28;1104;-54
2023/06/22 05:01:56;;;;;;;;;;;;;;;16.42;49.07;101074.84;5057070;28;1203;-53
2023/06/22 05:04:23;;;;;;;;;;;;;;;16.34;49.75;101074.50;5057014;28;1082;-51
2023/06/22 05:06:48;;;;;;;;;;;;;;;16.27;50.04;101084.88;5057095;28;1975;-54
2023/06/22 05:09:14;;;;;;;;;;;;;;;16.18;50.80;101076.31;5057607;28;1171;-54
2023/06/22 05:11:40;;;;;;;;;;;;;;;16.16;51.09;101083.97;5056796;28;1052;-55
2023/06/22 05:14:05;;;;;;;;;;;;;;;16.20;51.20;101085.09;5056346;28;1115;-55
2023/06/22 05:16:31;;;;;;;;;;;;;;;16.11;51.64;101086.72;5056875;28;1076;-55
2023/06/22 05:18:56;;;;;;;;;;;;;;;16.12;51.94;101096.56;5057463;28;993;-55
2023/06/22 05:21:26;;;;;;;;;;;;;;;16.06;52.34;101093.81;5057345;28;1100;-51
2023/06/22 05:23:51;;;;;;;;;;;;;;;17.44;49.67;101095.59;5056847;28;1078;-55
2023/06/22 05:26:18;;;;;;;;;;;;;;;16.85;51.28;101090.44;5056883;28;1971;-53
2023/06/22 05:28:46;;;;;;;;;;;;;;;16.56;52.05;101093.59;5056932;28;1065;-55
2023/06/22 05:31:15;;;;;;;;;;;;;;;16.46;52.67;101079.81;5056254;28;1163;-52
2023/06/22 05:33:41;;;;;;;;;;;;;;;16.39;52.91;101080.84;5056684;28;1131;-53
2023/06/22 05:36:06;;;;;;;;;;;;;;;16.39;53.02;101088.28;5056640;28;1095;-47
2023/06/22 05:38:32;;;;;;;;;;;;;;;16.27;53.75;101087.63;5056613;28;1100;-54
2023/06/22 05:40:57;;;;;;;;;;;;;;;16.20;53.79;101094.19;5056712;28;1015;-53
2023/06/22 05:43:23;;;;;;;;;;;;;;;16.21;54.05;101089.50;5043221;28;1176;-49
2023/06/22 05:45:48;;;;;;;;;;;;;;;16.13;54.42;101090.00;5056150;28;1905;-51
2023/06/22 05:48:14;;;;;;;;;;;;;;;16.14;54.31;101088.91;5056443;28;1099;-52
2023/06/22 05:50:39;;;;;;;;;;;;;;;16.13;54.66;101092.75;5056476;28;1020;-52
2023/06/22 05:53:06;;;;;;;;;;;;;;;16.11;54.68;101087.53;5056596;28;1019;-52
2023/06/22 05:55:32;;;;;;;;;;;;;;;17.46;52.53;101084.38;5056177;28;1059;-50
2023/06/22 05:57:57;;;;;;;;;;;;;;;17.09;53.53;101090.84;5056018;28;1183;-53
2023/06/22 06:00:23;;;;;;;;;;;;;;;16.76;54.30;101093.69;5055948;28;1187;-53
2023/06/22 06:02:49;;;;;;;;;;;;;;;16.63;54.76;101091.41;5055719;28;1004;-53
2023/06/22 06:05:15;;;;;;;;;;;;;;;16.53;55.02;101083.94;5056362;28;1906;-52
2023/06/22 06:07:43;;;;;;;;;;;;;;;16.42;54.99;101079.50;5056282;28;1029;-51
2023/06/22 06:10:09;;;;;;;;;;;;;;;16.42;54.94;101079.50;5056872;28;1099;-54
2023/06/22 06:12:35;;;;;;;;;;;;;;;16.39;55.13;101074.53;5038107;28;1115;-53
2023/06/22 06:15:01;;;;;;;;;;;;;;;16.37;54.89;101084.97;5055704;28;1136;-51
2023/06/22 06:17:26;;;;;;;;;;;;;;;16.28;54.99;101092.84;5056069;28;1533;-50
2023/06/22 06:19:52;;;;;;;;;;;;;;;16.26;55.32;101089.56;5056008;28;1265;-51
2023/06/22 06:22:18;;;;;;;;;;;;;;;16.22;55.40;101088.44;5056147;28;1168;-52
2023/06/22 06:24:45;;;;;;;;;;;;;;;16.25;55.09;101083.22;5055557;28;1127;-49
2023/06/22 06:27:10;;;;;;;;;;;;;;;16.25;55.22;101082.41;5055851;28;1975;-52
2023/06/22 06:29:36;;;;;;;;;;;;;;;16.24;55.10;101084.34;5055897;28;1506;-55
2023/06/22 06:32:01;;;;;;;;;;;;;;;16.16;55.59;101086.72;5056215;28;1072;-50
2023/06/22 06:34:27;;;;;;;;;;;;;;;16.13;55.61;101084.50;5055839;28;1048;-52
2023/06/22 06:36:52;;;;;;;;;;;;;;;17.17;54.73;101092.25;5055468;28;1016;-51
2023/06/22 06:39:18;;;;;;;;;;;;;;;17.21;54.92;101093.38;5055745;28;1207;-48
2023/06/22 06:41:43;;;;;;;;;;;;;;;16.74;56.03;101095.88;5056140;28;1033;-51
2023/06/22 06:44:14;;;;;;;;;;;;;;;16.61;56.07;101088.13;5038091;28;1336;-50
2023/06/22 06:46:40;;;;;;;;;;;;;;;16.58;56.06;101091.41;5055672;28;1914;-52
2023/06/22 06:49:05;;;;;;;;;;;;;;;16.51;56.04;101090.78;5055637;28;1101;-48
2023/06/22 06:51:30;;;;;;;;;;;;;;;16.42;56.23;101091.31;5055792;28;1176;-51
2023/06/22 06:53:56;;;;;;;;;;;;;;;16.42;55.81;101093.22;5055935;28;1195;-48
2023/06/22 06:56:21;;;;;;;;;;;;;;;16.41;55.93;101097.91;5055883;28;1111;-51
2023/06/22 06:58:49;;;;;;;;;;;;;;;16.35;55.84;101098.94;5037703;28;1126;-50
2023/06/22 07:01:14;;;;;;;;;;;;;;;16.32;55.87;101098.66;5055213;28;1127;-52
2023/06/22 07:03:41;;;;;;;;;;;;;;;16.31;55.60;101092.31;5055690;28;1160;-50
2023/06/22 07:06:07;;;;;;;;;;;;;;;16.31;55.86;101097.81;5054996;28;1985;-53
2023/06/22 07:08:35;;;;;;;;;;;;;;;16.28;55.79;101100.28;5055461;28;1178;-52
2023/06/22 07:11:00;;;;;;;;;;;;;;;16.29;55.58;101105.50;5055269;28;1033;-51
2023/06/22 07:13:26;;;;;;;;;;;;;;;16.25;55.66;101110.66;5050279;28;1166;-49
2023/06/22 07:15:51;;;;;;;;;;;;;;;16.24;55.89;101113.69;5058766;28;998;-51
2023/06/22 07:18:17;;;;;;;;;;;;;;;16.22;55.74;101110.38;5059441;28;1076;-50
2023/06/22 07:20:42;;;;;;;;;;;;;;;16.19;55.90;101117.22;5059344;28;1163;-53
2023/06/22 07:23:08;;;;;;;;;;;;;;;16.21;55.63;101115.03;5059573;28;1024;-54
2023/06/22 07:25:33;;;;;;;;;;;;;;;17.37;55.44;101106.03;5059000;28;1901;-53
2023/06/22 07:28:05;;;;;;;;;;;;;;;16.97;56.45;101112.22;5059082;28;1220;-53
2023/06/22 07:30:31;;;;;;;;;;;;;;;16.68;56.72;101107.94;5059231;28;973;-52
2023/06/22 07:32:57;;;;;;;;;;;;;;;16.58;56.65;101113.38;5058896;28;1190;-52
2023/06/22 07:35:23;;;;;;;;;;;;;;;16.50;56.73;101105.63;5050780;28;1123;-49
2023/06/22 07:37:48;;;;;;;;;;;;;;;16.49;56.30;101106.72;5053445;28;997;-51
2023/06/22 07:40:14;;;;;;;;;;;;;;;16.44;56.40;101110.28;5058954;28;1064;-50
2023/06/22 07:42:39;;;;;;;;;;;;;;;16.42;56.04;101112.44;5058732;28;1199;-51
2023/06/22 07:45:07;;;;;;;;;;;;;;;16.40;56.03;101112.69;5058896;28;1027;-55
2023/06/22 07:47:35;;;;;;;;;;;;;;;16.36;55.89;101117.06;5041132;28;1036;-49
2023/06/22 07:50:01;;;;;;;;;;;;;;;16.32;56.15;101112.38;5057997;28;1209;-51
2023/06/22 07:52:26;;;;;;;;;;;;;;;16.30;56.16;101111.78;5058732;28;1234;-49
2023/06/22 07:54:52;;;;;;;;;;;;;;;16.27;56.09;101112.31;5058815;28;1195;-49
2023/06/22 07:57:18;;;;;;;;;;;;;;;16.28;56.14;101112.06;5058759;28;1020;-52
2023/06/22 07:59:44;;;;;;;;;;;;;;;16.23;56.01;101112.03;5058514;28;1124;-49
2023/06/22 08:02:09;;;;;;;;;;;;;;;16.22;56.20;101104.91;5058127;28;1202;-54
2023/06/22 08:04:35;;;;;;;;;;;;;;;16.24;55.91;101109.03;5058469;28;1136;-52
2023/06/22 08:07:01;;;;;;;;;;;;;;;16.24;55.87;101111.78;5058507;28;1970;-49
2023/06/22 08:09:29;;;;;;;;;;;;;;;17.08;56.01;101105.66;5058338;28;1041;-53
2023/06/22 08:11:56;;;;;;;;;;;;;;;17.16;56.58;101112.59;5058250;28;1048;-48
2023/06/22 08:14:22;;;;;;;;;;;;;;;16.80;57.00;101110.44;5058270;28;1013;-50
2023/06/22 08:16:47;;;;;;;;;;;;;;;16.63;56.90;101105.16;5058421;28;1206;-54
2023/06/22 08:19:13;;;;;;;;;;;;;;;16.56;56.90;101099.06;5057846;28;1044;-53
2023/06/22 08:21:38;;;;;;;;;;;;;;;16.55;56.47;101087.28;5058059;28;1072;-52
2023/06/22 08:24:04;;;;;;;;;;;;;;;16.49;56.68;101087.50;5058187;28;1117;-51
2023/06/22 08:26:29;;;;;;;;;;;;;;;16.46;56.47;101088.84;5056832;28;2331;-51
2023/06/22 08:28:55;;;;;;;;;;;;;;;16.49;56.48;101093.81;5058136;28;1111;-51
2023/06/22 08:31:20;;;;;;;;;;;;;;;16.45;56.21;101083.63;5057863;28;1181;-53
2023/06/22 08:33:46;;;;;;;;;;;;;;;16.40;56.21;101096.22;5040173;28;1190;-52
2023/06/22 08:36:13;;;;;;;;;;;;;;;16.40;56.00;101090.75;5057709;28;1067;-50
2023/06/22 08:38:38;;;;;;;;;;;;;;;16.39;56.08;101100.06;5049488;28;858;-49
2023/06/22 08:41:04;;;;;;;;;;;;;;;16.40;55.95;101096.22;5055543;28;1267;-50
2023/06/22 08:43:29;;;;;;;;;;;;;;;16.34;56.00;101091.81;5057922;28;1051;-53
2023/06/22 08:45:55;;;;;;;;;;;;;;;16.30;56.01;101096.19;5057719;28;1910;-52
2023/06/22 08:48:20;;;;;;;;;;;;;;;16.31;55.93;101092.31;5057701;28;1075;-49
2023/06/22 08:50:46;;;;;;;;;;;;;;;16.29;55.65;101094.50;5052899;28;1200;-53
2023/06/22 08:53:11;;;;;;;;;;;;;;;16.31;55.72;101094.25;5048404;28;1182;-53
2023/06/22 08:55:36;;;;;;;;;;;;;;;16.28;55.71;101086.56;5053793;28;1171;-52
2023/06/22 08:58:03;;;;;;;;;;;;;;;16.21;55.94;101092.25;5047573;28;1056;-53
2023/06/22 09:00:32;;;;;;;;;;;;;;;16.20;55.88;101088.69;5057170;28;1051;-53
2023/06/22 09:02:58;;;;;;;;;;;;;;;16.23;55.88;101092.84;5046430;28;850;-52
2023/06/22 09:05:25;;;;;;;;;;;;;;;16.90;56.18;101085.84;5054166;28;1968;-50
2023/06/22 09:07:51;;;;;;;;;;;;;;;17.35;56.23;101089.00;5057298;28;1079;-54
2023/06/22 09:10:17;;;;;;;;;;;;;;;16.92;56.98;101075.38;5056773;28;1119;-53
2023/06/22 09:12:42;;;;;;;;;;;;;;;16.75;57.04;101081.06;5057262;28;1094;-54
2023/06/22 09:15:08;;;;;;;;;;;;;;;16.67;57.30;101095.28;5057053;28;1122;-52
2023/06/22 09:17:35;;;;;;;;;;;;;;;16.60;57.17;101097.44;5057294;28;1111;-53
2023/06/22 09:20:00;;;;;;;;;;;;;;;16.55;56.74;101102.91;5056895;28;1001;-55
2023/06/22 09:22:29;;;;;;;;;;;;;;;16.51;56.66;101096.28;5056884;28;1012;-53
2023/06/22 09:24:55;;;;;;;;;;;;;;;16.48;56.38;101105.06;5057340;28;1068;-50
2023/06/22 09:27:21;;;;;;;;;;;;;;;16.47;56.41;101096.00;5056280;28;1982;-53
2023/06/22 09:29:46;;;;;;;;;;;;;;;16.51;56.04;101090.78;5056776;28;1417;-54
2023/06/22 09:32:12;;;;;;;;;;;;;;;16.36;56.63;101089.63;5056486;28;1136;-52
2023/06/22 09:34:37;;;;;;;;;;;;;;;16.43;56.19;101092.94;5056858;28;1028;-52
2023/06/22 09:37:03;;;;;;;;;;;;;;;16.40;56.22;101093.50;5056992;28;1123;-49
2023/06/22 09:39:28;;;;;;;;;;;;;;;16.35;56.08;101087.97;5057079;28;930;-52
2023/06/22 09:41:54;;;;;;;;;;;;;;;16.37;56.12;101094.03;5056133;28;1128;-52
2023/06/22 09:44:19;;;;;;;;;;;;;;;16.35;56.22;101087.97;5056697;28;1044;-52
2023/06/22 09:46:45;;;;;;;;;;;;;;;16.38;55.90;101090.19;5057000;28;1910;-54
2023/06/22 09:49:10;;;;;;;;;;;;;;;16.32;56.17;101093.16;5038356;28;1140;-51
2023/06/22 09:51:36;;;;;;;;;;;;;;;16.34;56.20;101097.31;5056662;28;912;-52
2023/06/22 09:54:01;;;;;;;;;;;;;;;16.31;56.05;101103.28;5056800;28;1051;-51
2023/06/22 09:56:28;;;;;;;;;;;;;;;16.35;55.91;101107.16;5056632;28;1124;-52
2023/06/22 09:58:53;;;;;;;;;;;;;;;16.30;56.10;101107.16;5056312;28;1012;-49
2023/06/22 10:01:20;;;;;;;;;;;;;;;16.30;55.80;101107.16;5056518;28;1139;-56
2023/06/22 10:03:46;;;;;;;;;;;;;;;16.29;55.95;101105.50;5054650;28;1004;-52
2023/06/22 10:06:11;;;;;;;;;;;;;;;16.23;56.09;101106.56;5038295;28;1902;-53
2023/06/22 10:08:37;;;;;;;;;;;;;;;16.28;55.98;101108.50;5056131;28;1124;-54
2023/06/22 10:11:03;;;;;;;;;;;;;;;16.22;56.13;101107.63;5054921;28;1150;-51
2023/06/22 10:13:28;;;;;;;;;;;;;;;16.26;56.15;101108.78;5056210;28;1031;-51
2023/06/22 10:15:54;;;;;;;;;;;;;;;16.23;56.24;101112.03;5056156;28;1119;-51
2023/06/22 10:18:19;;;;;;;;;;;;;;;16.20;55.94;101107.91;5056179;28;1083;-51
2023/06/22 10:20:46;;;;;;;;;;;;;;;17.13;56.51;101108.44;5056384;28;1064;-52
2023/06/22 10:23:12;;;;;;;;;;;;;;;17.38;57.11;101110.44;5056193;28;1083;-48
2023/06/22 10:25:37;;;;;;;;;;;;;;;16.92;57.43;101110.28;5038524;28;1901;-51
2023/06/22 10:28:03;;;;;;;;;;;;;;;16.76;57.62;101114.84;5055697;28;943;-52
2023/06/22 10:30:29;;;;;;;;;;;;;;;16.73;56.92;101115.38;5055912;28;1065;-50
2023/06/22 10:32:54;;;;;;;;;;;;;;;16.59;57.09;101115.84;5055589;28;1051;-55
2023/06/22 10:35:20;;;;;;;;;;;;;;;16.55;56.86;101122.13;5056119;28;1124;-53
2023/06/22 10:37:45;;;;;;;;;;;;;;;16.52;56.74;101114.41;5056495;28;1036;-51
2023/06/22 10:40:12;;;;;;;;;;;;;;;16.47;56.65;101117.16;5055892;28;896;-49
2023/06/22 10:42:37;;;;;;;;;;;;;;;16.49;56.52;101109.47;5055766;28;1132;-50
2023/06/22 10:45:03;;;;;;;;;;;;;;;16.45;56.30;101102.84;5054892;28;1211;-49
2023/06/22 10:47:28;;;;;;;;;;;;;;;16.45;56.27;101100.09;5055024;28;1993;-52
2023/06/22 10:49:54;;;;;;;;;;;;;;;16.40;56.03;101089.94;5056859;28;1238;-54
2023/06/22 10:52:19;;;;;;;;;;;;;;;16.39;56.30;101083.59;5059370;28;966;-55
2023/06/22 10:54:45;;;;;;;;;;;;;;;16.40;56.08;101085.25;5059307;28;1191;-51
2023/06/22 10:57:10;;;;;;;;;;;;;;;16.38;56.16;101081.13;5059876;28;1059;-49
2023/06/22 10:59:36;;;;;;;;;;;;;;;16.38;56.19;101092.94;5059982;28;1613;-54
2023/06/22 11:02:02;;;;;;;;;;;;;;;16.36;55.93;101095.09;5059288;28;1447;-49
2023/06/22 11:04:27;;;;;;;;;;;;;;;16.31;56.18;101095.06;5059224;28;942;-48
2023/06/22 11:06:53;;;;;;;;;;;;;;;16.32;56.07;101082.19;5059590;28;1909;-53
2023/06/22 11:09:20;;;;;;;;;;;;;;;16.29;56.18;101083.53;5059501;28;1012;-52
2023/06/22 11:11:46;;;;;;;;;;;;;;;16.25;56.12;101088.72;5059603;28;1207;-49
2023/06/22 11:14:12;;;;;;;;;;;;;;;16.22;56.19;101083.75;5059433;28;1016;-52
2023/06/22 11:16:37;;;;;;;;;;;;;;;16.28;56.12;101081.88;5059330;28;1013;-54
2023/06/22 11:19:04;;;;;;;;;;;;;;;16.29;56.03;101086.28;5059702;28;1171;-52
2023/06/22 11:21:30;;;;;;;;;;;;;;;16.27;55.89;101080.25;5059491;28;1215;-52
2023/06/22 11:23:56;;;;;;;;;;;;;;;16.21;55.93;101090.31;5059125;28;997;-53
2023/06/22 11:26:22;;;;;;;;;;;;;;;16.51;56.60;101079.81;5059023;28;1906;-54
2023/06/22 11:28:47;;;;;;;;;;;;;;;17.56;56.77;101080.81;5053027;28;1147;-51
2023/06/22 11:31:12;;;;;;;;;;;;;;;17.03;57.65;101090.00;5059309;28;1195;-48
2023/06/22 11:33:38;;;;;;;;;;;;;;;16.79;57.43;101097.84;5059081;28;1302;-49
2023/06/22 11:36:03;;;;;;;;;;;;;;;16.64;57.65;101097.75;5058749;28;1103;-50
2023/06/22 11:38:30;;;;;;;;;;;;;;;16.58;56.93;101092.22;5059013;28;1103;-46
2023/06/22 11:40:57;;;;;;;;;;;;;;;16.60;57.22;101089.22;5058888;28;1119;-46
2023/06/22 11:43:22;;;;;;;;;;;;;;;16.82;58.32;101093.72;5059062;28;1195;-51
2023/06/22 11:45:48;;;;;;;;;;;;;;;16.64;58.33;101095.81;5058978;28;1914;-49
2023/06/22 11:48:13;;;;;;;;;;;;;;;16.67;58.02;101084.31;5058451;28;1501;-49
2023/06/22 11:50:39;;;;;;;;;;;;;;;16.56;57.47;101082.59;5058939;28;1123;-47
2023/06/22 11:53:04;;;;;;;;;;;;;;;16.51;57.52;101086.16;5058848;28;1458;-46
2023/06/22 11:55:30;;;;;;;;;;;;;;;16.49;57.18;101093.00;5058567;28;1040;-50
2023/06/22 11:57:58;;;;;;;;;;;;;;;16.46;56.83;101085.28;5058595;28;1131;-50
2023/06/22 12:00:24;;;;;;;;;;;;;;;16.44;56.70;101091.06;5058511;28;1091;-46
2023/06/22 12:02:52;;;;;;;;;;;;;;;16.45;56.73;101083.63;5057416;28;996;-49
2023/06/22 12:05:19;;;;;;;;;;;;;;;16.43;56.62;101079.22;5058720;28;1060;-51
2023/06/22 12:07:44;;;;;;;;;;;;;;;16.41;56.35;101080.59;5058217;28;1141;-48
2023/06/22 12:10:10;;;;;;;;;;;;;;;16.39;56.51;101075.34;5058546;28;1044;-47
2023/06/22 12:12:35;;;;;;;;;;;;;;;16.35;56.48;101085.22;5058563;28;1071;-46
2023/06/22 12:15:03;;;;;;;;;;;;;;;16.34;56.47;101080.84;5057868;28;1434;-48
2023/06/22 12:17:29;;;;;;;;;;;;;;;16.37;56.42;101077.56;5057757;28;1171;-48
2023/06/22 12:19:55;;;;;;;;;;;;;;;16.29;56.62;101077.22;5058601;28;1071;-49
2023/06/22 12:22:20;;;;;;;;;;;;;;;16.31;56.33;101073.09;5058623;28;1096;-48
2023/06/22 12:24:46;;;;;;;;;;;;;;;16.28;56.46;101083.81;5058256;28;1207;-52
2023/06/22 12:27:11;;;;;;;;;;;;;;;16.28;56.45;101086.56;5057719;28;1983;-51
2023/06/22 12:29:37;;;;;;;;;;;;;;;16.25;56.11;101077.75;5057761;28;1265;-50
2023/06/22 12:32:02;;;;;;;;;;;;;;;16.24;56.37;101080.75;5057960;28;1103;-51
2023/06/22 12:34:28;;;;;;;;;;;;;;;16.23;56.22;101084.59;5057856;28;1399;-52
2023/06/22 12:36:54;;;;;;;;;;;;;;;16.25;56.07;101082.41;5057535;28;1460;-47
2023/06/22 12:39:20;;;;;;;;;;;;;;;16.18;56.19;101076.31;5057719;28;1131;-49
2023/06/22 12:41:45;;;;;;;;;;;;;;;16.20;56.18;101076.88;5057853;28;1099;-48